Blueberry, Minnesota
Current Conditions -  °F | °C
As of 8:53 PM on Friday 19 Dec 2014 (Local Time) from KPKD Reporting Station
Haze Haze  
Wind Chill: 18°   Ceiling: 400
Heat Index: 27°   Visibility: 4mi
Dew Point: 25°   Wind: 9mph
Humidity: 92%   Direction: 150°SSE
Pressure: 30.04"   Gusts: NA
Location:  46.7591°N, 94.9748°W
Report Text: KPKD 200253Z AUTO 15008KT 4SM BR OVC004 M03/M04 A3004 RMK AO2 SNE09 SLP195 P0000 60001 T10281039 57004
Loading
Personal Weather Stations






























Interactive Weather Map New forecast layout! Learn more

10-Day Weather Forecast

Advertisements
Track Severe Weather on mobile